createdAt,value
2023-04-08T00:00:29.754Z,4.10
2023-04-08T00:02:56.666Z,3.00
2023-04-08T00:05:23.530Z,3.50
2023-04-08T00:07:50.277Z,4.00
2023-04-08T00:10:17.072Z,4.70
2023-04-08T00:12:43.988Z,5.37
2023-04-08T00:15:11.059Z,3.40
2023-04-08T00:17:37.807Z,4.57
2023-04-08T00:20:05.477Z,3.73
2023-04-08T00:22:32.194Z,3.83
2023-04-08T00:24:58.961Z,4.20
2023-04-08T00:27:25.962Z,5.03
2023-04-08T00:29:52.786Z,4.77
2023-04-08T00:32:19.675Z,4.83
2023-04-08T00:34:46.445Z,5.13
2023-04-08T00:37:13.188Z,6.13
2023-04-08T00:39:39.902Z,6.20
2023-04-08T00:42:06.646Z,5.40
2023-04-08T00:44:33.375Z,9.50
2023-04-08T00:47:00.365Z,10.57
2023-04-08T00:49:27.438Z,9.33
2023-04-08T00:51:55.515Z,9.63
2023-04-08T00:54:22.458Z,10.57
2023-04-08T00:56:49.243Z,10.07
2023-04-08T00:59:17.675Z,8.13
2023-04-08T01:02:06.887Z,8.77
2023-04-08T01:05:01.654Z,7.53
2023-04-08T01:07:36.739Z,6.17
2023-04-08T01:10:22.765Z,6.87
2023-04-08T01:12:57.064Z,6.90
2023-04-08T01:15:26.893Z,5.97
2023-04-08T01:17:56.577Z,5.57
2023-04-08T01:20:28.563Z,4.47
2023-04-08T01:23:00.691Z,4.83
2023-04-08T01:25:33.533Z,6.13
2023-04-08T01:28:04.769Z,5.47
2023-04-08T01:30:34.194Z,5.27
2023-04-08T01:33:02.544Z,4.17
2023-04-08T01:35:30.796Z,4.37
2023-04-08T01:37:58.401Z,4.77
2023-04-08T01:40:25.673Z,6.83
2023-04-08T01:42:56.277Z,5.37
2023-04-08T01:45:24.060Z,10.00
2023-04-08T01:47:51.752Z,6.93
2023-04-08T01:50:19.628Z,7.23
2023-04-08T01:52:49.372Z,7.30
2023-04-08T01:55:17.187Z,6.57
2023-04-08T01:57:49.735Z,6.57
2023-04-08T02:00:20.485Z,9.13
2023-04-08T02:02:48.206Z,8.73
2023-04-08T02:05:15.880Z,10.87
2023-04-08T02:07:42.686Z,10.23
2023-04-08T02:10:09.885Z,10.37
2023-04-08T02:12:36.891Z,10.30
2023-04-08T02:15:09.335Z,13.93
2023-04-08T02:17:45.591Z,14.40
2023-04-08T02:20:17.788Z,14.03
2023-04-08T02:22:50.526Z,16.20
2023-04-08T02:25:20.540Z,13.20
2023-04-08T02:27:49.253Z,14.47
2023-04-08T02:30:17.516Z,17.60
2023-04-08T02:32:45.741Z,17.63
2023-04-08T02:35:14.401Z,14.87
2023-04-08T02:37:41.408Z,17.27
2023-04-08T02:40:24.951Z,17.77
2023-04-08T02:42:51.860Z,17.10
2023-04-08T02:45:19.494Z,15.63
2023-04-08T02:47:46.331Z,18.27
2023-04-08T02:50:13.273Z,17.67
2023-04-08T02:52:40.363Z,17.57
2023-04-08T02:55:09.907Z,20.27
2023-04-08T02:57:37.933Z,18.53
2023-04-08T03:00:05.491Z,18.13
2023-04-08T03:02:32.361Z,17.03
2023-04-08T03:04:59.601Z,18.00
2023-04-08T03:07:26.651Z,16.97
2023-04-08T03:09:55.098Z,19.33
2023-04-08T03:12:22.557Z,16.73
2023-04-08T03:14:50.481Z,14.83
2023-04-08T03:17:17.461Z,18.87
2023-04-08T03:19:44.201Z,20.33
2023-04-08T03:22:11.112Z,17.77
2023-04-08T03:24:37.812Z,17.70
2023-04-08T03:27:04.741Z,18.00
2023-04-08T03:29:31.721Z,20.83
2023-04-08T03:31:58.664Z,15.23
2023-04-08T03:34:25.466Z,17.83
2023-04-08T03:36:52.199Z,17.30
2023-04-08T03:39:19.314Z,16.17
2023-04-08T03:41:46.132Z,16.73
2023-04-08T03:44:12.879Z,17.97
2023-04-08T03:46:39.645Z,18.40
2023-04-08T03:49:07.372Z,17.97
2023-04-08T03:51:34.159Z,18.67
2023-04-08T03:54:00.902Z,17.80
2023-04-08T03:56:27.681Z,20.53
2023-04-08T03:58:54.536Z,22.07
2023-04-08T04:01:21.487Z,18.53
2023-04-08T04:03:48.365Z,19.27
2023-04-08T04:06:15.488Z,19.50
2023-04-08T04:08:42.312Z,18.10
2023-04-08T04:11:09.101Z,17.83
2023-04-08T04:13:35.851Z,19.43
2023-04-08T04:16:02.696Z,21.07
2023-04-08T04:18:29.507Z,17.93
2023-04-08T04:20:56.412Z,19.20
2023-04-08T04:23:24.417Z,17.30
2023-04-08T04:25:51.359Z,17.00
2023-04-08T04:28:18.132Z,16.47
2023-04-08T04:30:45.695Z,18.87
2023-04-08T04:33:12.478Z,17.20
2023-04-08T04:35:40.945Z,16.80
2023-04-08T04:38:12.234Z,14.73
2023-04-08T04:40:39.744Z,17.10
2023-04-08T04:43:06.609Z,14.77
2023-04-08T04:45:33.542Z,16.67
2023-04-08T04:48:00.338Z,14.37
2023-04-08T04:50:27.297Z,16.17
2023-04-08T04:52:54.084Z,16.10
2023-04-08T04:55:22.427Z,15.57
2023-04-08T04:57:49.589Z,16.77
2023-04-08T05:00:17.129Z,16.13
2023-04-08T05:02:44.314Z,14.67
2023-04-08T05:05:11.228Z,16.27
2023-04-08T05:07:38.675Z,13.97
2023-04-08T05:10:06.201Z,15.53
2023-04-08T05:12:33.388Z,15.83
2023-04-08T05:15:00.702Z,15.00
2023-04-08T05:17:27.595Z,16.40
2023-04-08T05:19:54.638Z,14.53
2023-04-08T05:22:21.442Z,15.83
2023-04-08T05:24:48.250Z,12.87
2023-04-08T05:27:15.129Z,15.40
2023-04-08T05:29:41.852Z,12.60
2023-04-08T05:32:08.646Z,14.60
2023-04-08T05:34:35.469Z,12.83
2023-04-08T05:37:02.336Z,12.27
2023-04-08T05:39:29.214Z,14.90
2023-04-08T05:41:56.094Z,14.10
2023-04-08T05:44:22.948Z,14.50
2023-04-08T05:46:49.762Z,12.03
2023-04-08T05:49:17.417Z,13.87
2023-04-08T05:51:44.148Z,17.73
2023-04-08T05:54:10.957Z,15.37
2023-04-08T05:56:37.721Z,15.40
2023-04-08T05:59:04.788Z,17.60
2023-04-08T06:01:31.981Z,16.50
2023-04-08T06:03:58.856Z,14.37
2023-04-08T06:06:26.111Z,14.80
2023-04-08T06:08:53.080Z,12.80
2023-04-08T06:11:19.968Z,14.33
2023-04-08T06:13:46.714Z,16.27
2023-04-08T06:16:15.388Z,13.57
2023-04-08T06:18:42.281Z,15.07
2023-04-08T06:21:09.831Z,16.70
2023-04-08T06:23:36.941Z,13.87
2023-04-08T06:26:04.834Z,13.87
2023-04-08T06:28:32.035Z,14.77
2023-04-08T06:30:59.582Z,14.80
2023-04-08T06:33:26.310Z,12.67
2023-04-08T06:36:04.997Z,14.97
2023-04-08T06:38:32.486Z,13.17
2023-04-08T06:41:06.929Z,14.00
2023-04-08T06:43:35.394Z,11.70
2023-04-08T06:46:02.276Z,13.50
2023-04-08T06:48:30.536Z,14.47
2023-04-08T06:50:58.291Z,14.37
2023-04-08T06:53:26.253Z,16.27
2023-04-08T06:55:53.338Z,14.13
2023-04-08T06:58:20.264Z,15.20
2023-04-08T07:00:47.925Z,11.23
2023-04-08T07:03:14.862Z,12.57
2023-04-08T07:05:42.393Z,12.47
2023-04-08T07:08:09.398Z,11.87
2023-04-08T07:10:36.409Z,12.07
2023-04-08T07:13:04.353Z,11.17
2023-04-08T07:15:31.631Z,13.03
2023-04-08T07:17:59.708Z,11.00
2023-04-08T07:20:26.545Z,10.50
2023-04-08T07:22:53.337Z,13.07
2023-04-08T07:25:20.263Z,11.07
2023-04-08T07:27:47.106Z,13.23
2023-04-08T07:30:13.994Z,14.53
2023-04-08T07:32:41.059Z,10.47
2023-04-08T07:35:08.361Z,10.47
2023-04-08T07:37:35.265Z,11.50
2023-04-08T07:40:02.116Z,10.63
2023-04-08T07:42:29.088Z,13.27
2023-04-08T07:44:55.871Z,11.87
2023-04-08T07:47:22.829Z,10.93
2023-04-08T07:49:49.827Z,10.30
2023-04-08T07:52:16.593Z,9.87
2023-04-08T07:54:43.383Z,9.53
2023-04-08T07:57:10.214Z,9.83
2023-04-08T07:59:37.284Z,9.83
2023-04-08T08:02:04.418Z,9.27
2023-04-08T08:04:31.806Z,9.27
2023-04-08T08:06:58.873Z,10.87
2023-04-08T08:09:25.871Z,12.70
2023-04-08T08:11:52.622Z,10.37
2023-04-08T08:14:19.414Z,11.33
2023-04-08T08:16:46.235Z,10.30
2023-04-08T08:19:13.957Z,11.87
2023-04-08T08:21:41.277Z,9.97
2023-04-08T08:24:08.090Z,10.57
2023-04-08T08:26:36.910Z,8.97
2023-04-08T08:29:04.860Z,10.40
2023-04-08T08:31:31.693Z,13.27
2023-04-08T08:33:58.522Z,9.67
2023-04-08T08:36:25.281Z,10.20
2023-04-08T08:38:53.496Z,11.87
2023-04-08T08:41:23.553Z,9.23
2023-04-08T08:43:50.634Z,9.67
2023-04-08T08:46:19.357Z,9.47
2023-04-08T08:48:46.601Z,10.97
2023-04-08T08:51:14.128Z,9.80
2023-04-08T08:53:45.406Z,10.73
2023-04-08T08:56:18.517Z,10.57
2023-04-08T08:58:47.553Z,9.97
2023-04-08T09:01:34.926Z,11.33
2023-04-08T09:04:09.117Z,9.17
2023-04-08T09:06:37.658Z,8.67
2023-04-08T09:09:10.488Z,9.20
2023-04-08T09:12:01.388Z,9.10
2023-04-08T09:14:28.220Z,7.70
2023-04-08T09:16:55.063Z,7.60
2023-04-08T09:19:21.875Z,6.90
2023-04-08T09:22:05.880Z,8.93
2023-04-08T09:24:32.653Z,7.73
2023-04-08T09:26:59.655Z,7.03
2023-04-08T09:29:30.522Z,6.67
2023-04-08T09:32:01.607Z,7.80
2023-04-08T09:34:29.692Z,8.43
2023-04-08T09:36:56.663Z,7.77
2023-04-08T09:39:23.961Z,8.10
2023-04-08T09:41:52.524Z,7.70
2023-04-08T09:44:26.642Z,9.13
2023-04-08T09:47:11.236Z,9.33
2023-04-08T09:49:55.159Z,11.50
2023-04-08T09:52:29.947Z,12.40
2023-04-08T09:55:01.770Z,11.27
2023-04-08T09:57:37.029Z,9.10
2023-04-08T10:00:34.679Z,6.53
2023-04-08T10:03:11.705Z,7.87
2023-04-08T10:05:41.479Z,7.93
2023-04-08T10:08:08.426Z,8.50
2023-04-08T10:10:38.367Z,7.33
2023-04-08T10:13:06.690Z,6.20
2023-04-08T10:15:38.378Z,8.27
2023-04-08T10:18:08.177Z,9.00
2023-04-08T10:20:35.766Z,5.63
2023-04-08T10:23:10.379Z,5.83
2023-04-08T10:25:37.894Z,8.00
2023-04-08T10:28:19.663Z,6.80
2023-04-08T10:30:47.640Z,7.30
2023-04-08T10:33:22.702Z,6.03
2023-04-08T10:35:54.536Z,4.50
2023-04-08T10:38:21.602Z,5.63
2023-04-08T10:40:49.332Z,4.17
2023-04-08T10:43:16.294Z,6.70
2023-04-08T10:45:46.468Z,9.87
2023-04-08T10:48:17.843Z,7.30
2023-04-08T10:51:05.787Z,7.33
2023-04-08T10:53:32.691Z,5.93
2023-04-08T10:56:15.362Z,5.87
2023-04-08T10:58:54.178Z,7.00
2023-04-08T11:01:21.368Z,7.13
2023-04-08T11:03:49.164Z,5.20
2023-04-08T11:06:17.538Z,5.80
2023-04-08T11:08:47.422Z,6.47
2023-04-08T11:11:15.418Z,6.93
2023-04-08T11:13:52.712Z,5.57
2023-04-08T11:16:23.804Z,6.40
2023-04-08T11:18:51.347Z,5.83
2023-04-08T11:21:18.270Z,8.83
2023-04-08T11:23:45.238Z,5.23
2023-04-08T11:26:12.256Z,5.00
2023-04-08T11:28:39.214Z,5.23
2023-04-08T11:31:07.590Z,5.27
2023-04-08T11:33:35.908Z,5.57
2023-04-08T11:36:08.344Z,6.67
2023-04-08T11:38:40.649Z,5.47
2023-04-08T11:41:07.520Z,5.20
2023-04-08T11:43:36.575Z,6.53
2023-04-08T11:46:10.788Z,7.77
2023-04-08T11:48:38.632Z,5.87
2023-04-08T11:51:09.293Z,5.37
2023-04-08T11:53:37.793Z,5.57
2023-04-08T11:56:18.528Z,6.60
2023-04-08T11:58:46.424Z,6.27
2023-04-08T12:01:13.536Z,5.50
2023-04-08T12:03:53.528Z,6.70
2023-04-08T12:06:20.522Z,6.33
2023-04-08T12:08:48.081Z,5.03
2023-04-08T12:11:19.856Z,4.97
2023-04-08T12:13:47.624Z,5.97
2023-04-08T12:16:14.583Z,5.43
2023-04-08T12:18:41.605Z,6.20
2023-04-08T12:21:08.475Z,5.00
2023-04-08T12:23:35.471Z,5.60
2023-04-08T12:26:02.442Z,5.60
2023-04-08T12:28:29.204Z,4.83
2023-04-08T12:30:56.209Z,5.33
2023-04-08T12:33:22.977Z,6.30
2023-04-08T12:35:49.928Z,5.37
2023-04-08T12:38:17.458Z,4.83
2023-04-08T12:40:44.239Z,7.43
2023-04-08T12:43:11.817Z,5.47
2023-04-08T12:45:38.589Z,4.43
2023-04-08T12:48:05.506Z,4.93
2023-04-08T12:50:32.303Z,4.43
2023-04-08T12:52:59.177Z,4.30
2023-04-08T12:55:26.088Z,4.53
2023-04-08T12:57:53.266Z,5.43
2023-04-08T13:00:20.142Z,5.37
2023-04-08T13:02:47.338Z,6.23
2023-04-08T13:05:14.567Z,5.73
2023-04-08T13:07:41.449Z,4.70
2023-04-08T13:10:09.022Z,5.77
2023-04-08T13:12:35.881Z,5.13
2023-04-08T13:15:02.660Z,5.70
2023-04-08T13:17:29.527Z,4.70
2023-04-08T13:19:56.319Z,5.93
2023-04-08T13:22:23.060Z,5.13
2023-04-08T13:24:49.852Z,5.53
2023-04-08T13:27:17.468Z,4.20
2023-04-08T13:29:44.377Z,4.57
2023-04-08T13:32:11.423Z,4.67
2023-04-08T13:34:38.242Z,6.23
2023-04-08T13:37:05.017Z,6.77
2023-04-08T13:39:31.776Z,13.27
2023-04-08T13:41:58.545Z,4.90
2023-04-08T13:44:25.680Z,5.53
2023-04-08T13:46:53.097Z,6.63
2023-04-08T13:49:20.510Z,4.47
2023-04-08T13:51:47.258Z,5.60
2023-04-08T13:54:14.050Z,5.13
2023-04-08T13:56:40.791Z,7.50
2023-04-08T13:59:07.656Z,4.80
2023-04-08T14:01:34.515Z,5.73
2023-04-08T14:04:01.368Z,6.57
2023-04-08T14:06:28.207Z,5.40
2023-04-08T14:08:55.141Z,5.67
2023-04-08T14:11:21.876Z,6.00
2023-04-08T14:13:48.635Z,4.67
2023-04-08T14:16:16.720Z,6.37
2023-04-08T14:18:43.617Z,4.40
2023-04-08T14:21:10.541Z,5.47
2023-04-08T14:23:37.269Z,4.77
2023-04-08T14:26:04.088Z,5.87
2023-04-08T14:28:30.981Z,7.93
2023-04-08T14:30:57.876Z,5.53
2023-04-08T14:33:24.868Z,4.90
2023-04-08T14:35:53.587Z,5.07
2023-04-08T14:38:21.407Z,4.17
2023-04-08T14:40:48.250Z,7.07
2023-04-08T14:43:15.024Z,4.80
2023-04-08T14:45:42.322Z,5.47
2023-04-08T14:48:09.234Z,5.07
2023-04-08T14:50:36.233Z,4.33
2023-04-08T14:53:03.427Z,5.73
2023-04-08T14:55:32.219Z,4.40
2023-04-08T14:58:00.936Z,5.67
2023-04-08T15:00:28.085Z,5.47
2023-04-08T15:02:54.941Z,6.00
2023-04-08T15:05:21.912Z,6.43
2023-04-08T15:07:48.864Z,5.90
2023-04-08T15:10:15.697Z,5.20
2023-04-08T15:12:42.484Z,5.43
2023-04-08T15:15:09.850Z,5.10
2023-04-08T15:17:36.790Z,4.90
2023-04-08T15:20:04.093Z,6.27
2023-04-08T15:22:30.849Z,5.70
2023-04-08T15:24:57.695Z,6.27
2023-04-08T15:27:24.580Z,7.03
2023-04-08T15:29:51.480Z,5.83
2023-04-08T15:32:18.230Z,7.27
2023-04-08T15:34:45.032Z,5.70
2023-04-08T15:37:11.779Z,6.13
2023-04-08T15:39:38.575Z,5.70
2023-04-08T15:42:06.006Z,7.53
2023-04-08T15:44:33.170Z,6.37
2023-04-08T15:47:00.228Z,5.00
2023-04-08T15:49:27.050Z,6.90
2023-04-08T15:51:53.847Z,6.70
2023-04-08T15:54:20.629Z,6.00
2023-04-08T15:56:47.412Z,6.37
2023-04-08T15:59:15.451Z,7.17
2023-04-08T16:01:43.202Z,5.70
2023-04-08T16:04:10.258Z,7.17
2023-04-08T16:06:37.262Z,7.37
2023-04-08T16:09:04.248Z,12.83
2023-04-08T16:11:31.086Z,14.00
2023-04-08T16:13:57.842Z,14.23
2023-04-08T16:16:24.639Z,16.73
2023-04-08T16:21:19.346Z,12.17
2023-04-08T16:23:46.171Z,10.90
2023-04-08T16:26:12.895Z,8.00
2023-04-08T16:28:39.993Z,6.50
2023-04-08T16:31:07.135Z,6.27
2023-04-08T16:33:33.950Z,6.30
2023-04-08T16:36:01.342Z,5.87
2023-04-08T16:38:28.195Z,6.53
2023-04-08T16:40:58.577Z,5.73
2023-04-08T16:43:26.028Z,4.87
2023-04-08T16:45:53.327Z,5.03
2023-04-08T16:48:20.208Z,6.13
2023-04-08T16:50:46.948Z,5.20
2023-04-08T16:53:13.704Z,6.10
2023-04-08T16:55:40.664Z,5.90
2023-04-08T16:58:07.508Z,4.77
2023-04-08T17:00:34.388Z,4.63
2023-04-08T17:03:01.625Z,5.40
2023-04-08T17:05:28.512Z,5.47
2023-04-08T17:07:58.530Z,4.57
2023-04-08T17:10:25.664Z,5.17
2023-04-08T17:12:52.532Z,5.67
2023-04-08T17:15:19.497Z,4.43
2023-04-08T17:17:47.801Z,5.83
2023-04-08T17:20:14.765Z,5.60
2023-04-08T17:22:41.981Z,4.87
2023-04-08T17:25:09.071Z,5.80
2023-04-08T17:27:36.473Z,7.23
2023-04-08T17:30:03.555Z,7.73
2023-04-08T17:32:30.532Z,6.43
2023-04-08T17:34:57.306Z,5.40
2023-04-08T17:37:24.133Z,6.77
2023-04-08T17:39:51.560Z,6.03
2023-04-08T17:42:22.365Z,5.37
2023-04-08T17:44:49.186Z,5.23
2023-04-08T17:47:16.311Z,4.27
2023-04-08T17:49:43.066Z,4.90
2023-04-08T17:52:09.902Z,4.83
2023-04-08T17:54:36.693Z,4.53
2023-04-08T17:57:03.559Z,5.80
2023-04-08T17:59:30.372Z,5.80
2023-04-08T18:01:57.374Z,6.63
2023-04-08T18:04:24.281Z,6.10
2023-04-08T18:06:51.125Z,6.00
2023-04-08T18:09:17.865Z,5.30
2023-04-08T18:11:44.631Z,5.73
2023-04-08T18:14:12.530Z,5.83
2023-04-08T18:16:39.339Z,6.47
2023-04-08T18:19:06.136Z,8.17
2023-04-08T18:21:32.926Z,6.60
2023-04-08T18:23:59.662Z,5.67
2023-04-08T18:26:28.218Z,5.87
2023-04-08T18:28:55.253Z,6.17
2023-04-08T18:31:22.253Z,6.10
2023-04-08T18:33:49.366Z,5.90
2023-04-08T18:36:17.443Z,5.67
2023-04-08T18:38:44.718Z,4.73
2023-04-08T18:41:13.221Z,5.30
2023-04-08T18:43:40.211Z,5.60
2023-04-08T18:46:07.226Z,4.83
2023-04-08T18:48:34.141Z,5.77
2023-04-08T18:51:01.929Z,4.53
2023-04-08T18:53:28.893Z,4.83
2023-04-08T18:55:56.246Z,4.03
2023-04-08T18:58:23.012Z,3.90
2023-04-08T19:00:49.834Z,3.70
2023-04-08T19:03:17.070Z,4.33
2023-04-08T19:05:43.965Z,3.80
2023-04-08T19:08:10.714Z,3.67
2023-04-08T19:10:37.481Z,3.70
2023-04-08T19:13:04.300Z,4.27
2023-04-08T19:15:31.236Z,3.93
2023-04-08T19:17:59.019Z,3.70
2023-04-08T19:20:27.141Z,4.10
2023-04-08T19:22:53.913Z,4.23
2023-04-08T19:25:20.938Z,4.20
2023-04-08T19:27:47.732Z,4.00
2023-04-08T19:30:14.772Z,4.53
2023-04-08T19:32:43.042Z,4.17
2023-04-08T19:35:12.216Z,4.87
2023-04-08T19:37:38.978Z,4.47
2023-04-08T19:40:07.768Z,5.47
2023-04-08T19:42:34.708Z,5.23
2023-04-08T19:45:03.036Z,5.03
2023-04-08T19:47:29.860Z,7.07
2023-04-08T19:49:58.190Z,8.00
2023-04-08T19:52:25.310Z,5.50
2023-04-08T19:54:52.232Z,5.10
2023-04-08T19:57:19.813Z,5.40
2023-04-08T19:59:48.594Z,6.37
2023-04-08T20:02:15.484Z,6.37
2023-04-08T20:04:42.645Z,7.23
2023-04-08T20:07:09.708Z,8.33
2023-04-08T20:09:36.569Z,8.60
2023-04-08T20:12:06.141Z,7.10
2023-04-08T20:14:34.094Z,6.30
2023-04-08T20:17:01.155Z,6.60
2023-04-08T20:19:28.147Z,8.80
2023-04-08T20:21:54.962Z,5.73
2023-04-08T20:24:21.889Z,6.50
2023-04-08T20:26:48.692Z,6.07
2023-04-08T20:29:16.102Z,6.37
2023-04-08T20:31:44.620Z,7.63
2023-04-08T20:34:11.973Z,7.03
2023-04-08T20:36:39.817Z,8.63
2023-04-08T20:39:10.111Z,7.20
2023-04-08T20:41:37.657Z,6.90
2023-04-08T20:44:10.382Z,6.87
2023-04-08T20:46:38.190Z,8.27
2023-04-08T20:49:05.725Z,7.17
2023-04-08T20:51:35.643Z,8.13
2023-04-08T20:54:02.477Z,9.03
2023-04-08T20:56:29.564Z,7.37
2023-04-08T20:58:58.216Z,7.30
2023-04-08T21:01:26.953Z,7.23
2023-04-08T21:03:54.711Z,8.27
2023-04-08T21:06:22.120Z,13.40
2023-04-08T21:08:50.165Z,11.77
2023-04-08T21:11:17.175Z,11.07
2023-04-08T21:13:47.373Z,10.50
2023-04-08T21:16:16.103Z,10.93
2023-04-08T21:18:42.863Z,7.87
2023-04-08T21:21:10.382Z,9.27
2023-04-08T21:23:37.155Z,7.73
2023-04-08T21:26:04.003Z,7.47
2023-04-08T21:28:30.759Z,6.33
2023-04-08T21:31:11.076Z,7.67
2023-04-08T21:33:38.071Z,7.93
2023-04-08T21:36:06.272Z,7.93
2023-04-08T21:38:33.532Z,7.90
2023-04-08T21:41:00.779Z,7.80
2023-04-08T21:43:27.612Z,6.90
2023-04-08T21:45:54.597Z,8.80
2023-04-08T21:48:21.739Z,7.33
2023-04-08T21:50:49.003Z,7.60
2023-04-08T21:53:15.749Z,7.17
2023-04-08T21:55:42.543Z,6.47
2023-04-08T21:58:12.064Z,7.37
2023-04-08T22:00:39.131Z,6.23
2023-04-08T22:03:08.878Z,7.00
2023-04-08T22:05:35.987Z,5.97
2023-04-08T22:08:02.783Z,6.40
2023-04-08T22:10:29.775Z,5.27
2023-04-08T22:12:56.550Z,4.70
2023-04-08T22:15:23.373Z,5.07
2023-04-08T22:17:50.215Z,11.40
2023-04-08T22:20:17.109Z,11.43
2023-04-08T22:22:43.858Z,15.90
2023-04-08T22:25:10.906Z,21.40
2023-04-08T22:27:37.648Z,22.30
2023-04-08T22:30:04.893Z,14.17
2023-04-08T22:32:31.701Z,13.10
2023-04-08T22:34:58.423Z,11.67
2023-04-08T22:37:25.552Z,13.20
2023-04-08T22:39:52.411Z,10.90
2023-04-08T22:42:19.183Z,10.23
2023-04-08T22:44:45.926Z,8.50
2023-04-08T22:47:12.715Z,13.07
2023-04-08T22:49:42.508Z,11.43
2023-04-08T22:52:09.345Z,10.23
2023-04-08T22:54:36.717Z,9.43
2023-04-08T22:57:03.606Z,8.83
2023-04-08T22:59:30.371Z,9.27
2023-04-08T23:01:57.224Z,12.43
2023-04-08T23:04:24.155Z,11.93
2023-04-08T23:06:50.980Z,10.83
2023-04-08T23:09:17.740Z,12.10
2023-04-08T23:11:44.487Z,14.40
2023-04-08T23:14:11.442Z,10.33
2023-04-08T23:16:38.201Z,11.13
2023-04-08T23:19:04.971Z,14.23
2023-04-08T23:21:31.883Z,13.07
2023-04-08T23:23:58.655Z,14.07
2023-04-08T23:26:25.655Z,14.60
2023-04-08T23:28:52.890Z,12.60
2023-04-08T23:31:19.942Z,13.13
2023-04-08T23:33:46.735Z,12.03
2023-04-08T23:36:13.597Z,11.60
2023-04-08T23:38:40.693Z,14.97
2023-04-08T23:41:07.954Z,12.70
2023-04-08T23:43:36.041Z,13.20
2023-04-08T23:46:02.912Z,12.03
2023-04-08T23:48:29.731Z,10.83
2023-04-08T23:50:56.506Z,10.63
2023-04-08T23:53:23.325Z,9.47
2023-04-08T23:55:50.280Z,10.77
2023-04-08T23:58:17.050Z,10.93
